Aikomaru — JD4211 — position and weather

sailwx.info

Track history (hours):
 
Tides and Currents Weather Stations Pressure Air Temp Water Temp Dewpoint Dewpoint Depression Visibility Wind Speed Wind Dir Waves Ship Positions

Aikomaru

Last reported at 2018-Feb-23 01:54 UTC. Time now 2018-Feb-23 02:38 UTC.
Position N 35°36' E 139°48'.

Length 65 m; draft 3.5 m.

Type: Tanker. MMSI: 431009737.

Date/timePositionNaut miles runAvg speedWind from/ knotsBaromVisibWave heightAir tempDewpointWater temp
2018-Feb-23 01:54N 35°36' E 139°48'1 1.7
2018-Feb-23 01:30N 35°36' E 139°47'2 4.0
2018-Feb-23 01:00N 35°34' E 139°48'4 7.6
2018-Feb-23 00:30N 35°30' E 139°47'2 0.1
2018-Feb-22 08:49N 35°31' E 139°45'1 3.9
2018-Feb-22 08:30N 35°30' E 139°46'611.9
2018-Feb-22 07:58N 35°30' E 139°54'511.9
2018-Feb-22 07:30N 35°30' E 140°01'1 1.3
2018-Feb-22 06:32N 35°30' E 140°02'0 0.0
2018-Feb-22 06:28N 35°30' E 140°02'0 0.0
2018-Feb-22 06:00N 35°30' E 140°02'2 3.1
2018-Feb-22 05:31N 35°30' E 140°00'0 0.0
2018-Feb-22 05:01N 35°30' E 140°00'0 0.0
2018-Feb-22 04:30N 35°30' E 140°00'3 7.0
2018-Feb-22 04:01N 35°33' E 139°57'712.1
2018-Feb-22 03:26N 35°37' E 139°50'1 2.5
2018-Feb-22 02:56N 35°38' E 139°50'0 0.0
2018-Feb-22 02:30N 35°38' E 139°50'2 4.6
2018-Feb-22 02:00N 35°36' E 139°50'510.8
2018-Feb-22 01:31N 35°30' E 139°48'4 7.3
2018-Feb-22 01:00N 35°30' E 139°44'0 0.2
2018-Feb-22 00:30N 35°30' E 139°44'0 0.0
2018-Feb-22 00:00N 35°30' E 139°44'1 2.6
2018-Feb-21 23:30N 35°31' E 139°45'0 0.0
2018-Feb-21 10:10N 35°31' E 139°45'0 2.0
2018-Feb-21 10:00N 35°31' E 139°45'610.9
2018-Feb-21 09:30N 35°30' E 139°52'611.9
2018-Feb-21 09:00N 35°30' E 139°59'2 4.2
2018-Feb-21 08:26N 35°30' E 140°02'0 0.0
2018-Feb-21 07:56N 35°30' E 140°02'0 0.0
2018-Feb-21 06:56N 35°30' E 140°02'1 3.5
2018-Feb-21 06:30N 35°30' E 140°00'0 0.1
2018-Feb-21 06:00N 35°30' E 140°00'711.8
2018-Feb-21 05:27N 35°34' E 139°54'511.4
2018-Feb-21 04:59N 35°37' E 139°48'0 0.5
2018-Feb-21 04:27N 35°36' E 139°48'0 0.0
2018-Feb-21 03:48N 35°36' E 139°48'0 0.0
2018-Feb-21 03:30N 35°36' E 139°48'1 1.1
2018-Feb-21 03:00N 35°37' E 139°47'0 0.5
2018-Feb-21 02:30N 35°37' E 139°48'0 0.0
2018-Feb-21 02:00N 35°37' E 139°48'0 0.0
2018-Feb-21 01:30N 35°37' E 139°48'0 0.0
2018-Feb-21 01:00N 35°37' E 139°48'2 3.1
2018-Feb-21 00:30N 35°35' E 139°47'5 9.6
2018-Feb-21 00:00N 35°31' E 139°49'3 6.4
2018-Feb-20 23:30N 35°31' E 139°45'0 0.0
2018-Feb-20 05:55N 35°31' E 139°45'3 6.4
2018-Feb-20 05:30N 35°30' E 139°48'611.8
2018-Feb-20 04:59N 35°30' E 139°55'611.7
2018-Feb-20 04:30N 35°31' E 140°02'0 0.7
2018-Feb-20 04:00N 35°31' E 140°03'0 0.0
2018-Feb-20 03:30N 35°31' E 140°03'0 0.0
2018-Feb-20 02:54N 35°31' E 140°03'1 1.8
2018-Feb-20 02:30N 35°31' E 140°02'0 0.1
2018-Feb-20 02:00N 35°31' E 140°02'711.9
2018-Feb-20 01:25N 35°34' E 139°54'510.9
2018-Feb-20 00:57N 35°38' E 139°50'0 0.0
2018-Feb-20 00:30N 35°38' E 139°50'0 0.1
2018-Feb-20 00:00N 35°38' E 139°49'2 4.5
2018-Feb-19 23:30N 35°36' E 139°51'611.1
2018-Feb-19 23:01N 35°31' E 139°48'3 0.3
2018-Feb-19 13:29N 35°31' E 139°45'3 5.8
2018-Feb-19 13:00N 35°30' E 139°48'5 9.9
2018-Feb-19 12:30N 35°35' E 139°47'1 2.0
2018-Feb-19 12:00N 35°36' E 139°48'0 0.0
2018-Feb-19 11:30N 35°36' E 139°48'0 0.0
2018-Feb-19 11:00N 35°36' E 139°48'0 0.7
2018-Feb-19 10:30N 35°36' E 139°47'2 4.3
2018-Feb-19 10:00N 35°34' E 139°48'0 0.1
2018-Feb-19 09:28N 35°34' E 139°48'0 0.0
2018-Feb-19 09:00N 35°34' E 139°48'1 1.5
2018-Feb-19 08:31N 35°33' E 139°49'4 7.7
2018-Feb-19 08:00N 35°30' E 139°46'1 2.0
2018-Feb-19 07:29N 35°31' E 139°45'3 6.4
2018-Feb-19 07:00N 35°29' E 139°42'611.3
2018-Feb-19 06:31N 35°23' E 139°41'3 5.2
2018-Feb-19 06:00N 35°24' E 139°38'0 0.0
2018-Feb-19 04:14N 35°24' E 139°38'0 0.9
2018-Feb-19 04:00N 35°24' E 139°38'2 4.9
2018-Feb-19 03:30N 35°24' E 139°41'612.5
2018-Feb-19 03:00N 35°28' E 139°46'611.1
2018-Feb-19 02:29N 35°34' E 139°49'4 8.0
2018-Feb-19 01:59N 35°37' E 139°47'0 0.0
2018-Feb-19 01:29N 35°37' E 139°47'0 0.0
2018-Feb-19 00:57N 35°37' E 139°47'0 0.0
2018-Feb-19 00:28N 35°37' E 139°47'0 0.0
2018-Feb-18 23:48N 35°37' E 139°47'2 5.3
2018-Feb-18 23:30N 35°36' E 139°47'5 9.9
2018-Feb-18 23:00N 35°31' E 139°49'3 6.7
2018-Feb-18 22:30N 35°31' E 139°45'0 0.0
2018-Feb-18 04:08N 35°31' E 139°45'0 0.2
2018-Feb-18 04:00N 35°31' E 139°45'4 8.9
2018-Feb-18 03:30N 35°30' E 139°50'611.9
2018-Feb-18 02:58N 35°31' E 139°58'4 1.1
2018-Feb-17 23:20N 35°31' E 140°03'1 3.9
2018-Feb-17 23:00N 35°31' E 140°01'612.5
2018-Feb-17 22:30N 35°30' E 139°53'612.6
2018-Feb-17 22:00N 35°30' E 139°46'1 0.1
2018-Feb-17 08:45N 35°31' E 139°45'0 0.2
2018-Feb-17 08:30N 35°31' E 139°45'4 7.8
2018-Feb-17 08:00N 35°32' E 139°49'611.9
2018-Feb-17 07:30N 35°38' E 139°50'0 0.0
2018-Feb-17 06:31N 35°38' E 139°50'0 0.0
2018-Feb-17 06:30N 35°38' E 139°50'2 3.7
2018-Feb-17 06:00N 35°36' E 139°51'0 0.5
2018-Feb-17 05:30N 35°36' E 139°51'0 0.1
2018-Feb-17 04:49N 35°36' E 139°51'0 0.0
2018-Feb-17 04:30N 35°36' E 139°51'0 0.0
2018-Feb-17 03:29N 35°36' E 139°51'0 0.0
2018-Feb-17 02:54N 35°36' E 139°51'0 0.1
2018-Feb-17 02:30N 35°36' E 139°51'0 0.1
2018-Feb-17 01:57N 35°36' E 139°51'0 0.0
2018-Feb-17 01:28N 35°36' E 139°51'0 0.0
2018-Feb-17 00:57N 35°36' E 139°51'0 0.1
2018-Feb-17 00:30N 35°36' E 139°51'0 0.0
2018-Feb-17 00:00N 35°36' E 139°51'0 0.0
2018-Feb-16 23:29N 35°36' E 139°51'0 0.0
2018-Feb-16 23:00N 35°36' E 139°51'1 1.5
2018-Feb-16 22:27N 35°36' E 139°50'2 3.8
2018-Feb-16 21:58N 35°36' E 139°48'0 0.0
2018-Feb-16 21:29N 35°36' E 139°48'0 0.5
2018-Feb-16 20:59N 35°36' E 139°48'4 7.5
2018-Feb-16 20:31N 35°33' E 139°50'4 8.8
2018-Feb-16 20:01N 35°30' E 139°45'1 0.0
2018-Feb-15 04:04N 35°31' E 139°45'0 0.1
2018-Feb-15 04:00N 35°31' E 139°45'3 6.7
2018-Feb-15 03:30N 35°31' E 139°49'611.4
2018-Feb-15 03:00N 35°37' E 139°50'1 1.7
2018-Feb-15 02:23N 35°38' E 139°50'0 0.0
2018-Feb-15 01:59N 35°38' E 139°50'2 3.9
2018-Feb-15 01:31N 35°36' E 139°50'5 9.0
2018-Feb-15 01:00N 35°32' E 139°49'4 7.6
2018-Feb-15 00:30N 35°31' E 139°45'0 0.0
2018-Feb-15 00:01N 35°31' E 139°45'0 0.0
2018-Feb-14 23:31N 35°31' E 139°45'0 0.0
2018-Feb-14 08:52N 35°31' E 139°45'1 4.1
2018-Feb-14 08:31N 35°30' E 139°46'611.2
2018-Feb-14 07:57N 35°30' E 139°54'511.3
2018-Feb-14 07:28N 35°30' E 140°01'1 1.3
2018-Feb-14 06:34N 35°30' E 140°02'0 0.0
2018-Feb-14 06:24N 35°30' E 140°02'0 0.1
2018-Feb-14 06:00N 35°30' E 140°02'711.9
2018-Feb-14 05:28N 35°34' E 139°55'612.4
2018-Feb-14 05:00N 35°37' E 139°49'1 2.7
2018-Feb-14 04:28N 35°36' E 139°48'0 0.0
2018-Feb-14 03:57N 35°36' E 139°48'0 0.0
2018-Feb-14 03:30N 35°36' E 139°48'0 0.3
2018-Feb-14 02:59N 35°36' E 139°48'2 3.4
2018-Feb-14 02:30N 35°35' E 139°48'3 6.5
2018-Feb-14 02:01N 35°32' E 139°49'510.3
2018-Feb-14 01:31N 35°30' E 139°43'0 0.1
2018-Feb-14 01:00N 35°30' E 139°43'0 0.0
2018-Feb-14 00:31N 35°30' E 139°43'0 0.0
2018-Feb-14 00:00N 35°30' E 139°43'2 3.6
2018-Feb-13 23:30N 35°31' E 139°45'0 0.0
2018-Feb-13 08:33N 35°31' E 139°45'0 0.1
2018-Feb-13 08:30N 35°31' E 139°45'4 7.7
2018-Feb-13 08:01N 35°32' E 139°49'611.5
2018-Feb-13 07:30N 35°37' E 139°46'1 1.6
2018-Feb-13 07:00N 35°38' E 139°46'0 0.0
2018-Feb-13 06:30N 35°38' E 139°46'0 0.0
2018-Feb-13 06:01N 35°38' E 139°46'0 0.0
2018-Feb-13 05:30N 35°38' E 139°46'3 6.2
2018-Feb-13 04:59N 35°38' E 139°50'0 0.0
2018-Feb-13 04:30N 35°38' E 139°50'0 0.0
2018-Feb-13 04:00N 35°38' E 139°50'6 9.3
2018-Feb-13 03:24N 35°34' E 139°55'511.7
2018-Feb-13 03:00N 35°32' E 139°60'  
Track history (hours):
 
Tides and Currents Weather Stations Pressure Air Temp Water Temp Dewpoint Dewpoint Depression Visibility Wind Speed Wind Dir Waves Ship Positions

Aikomaru

Last reported at 2018-Feb-23 01:54 UTC. Time now 2018-Feb-23 02:38 UTC.
Position N 35°36' E 139°48'.

Length 65 m; draft 3.5 m.

Type: Tanker. MMSI: 431009737.

Date/timePositionNaut miles runAvg speedWind from/ knotsBaromVisibWave heightAir tempDewpointWater temp
2018-Feb-23 01:54N 35°36' E 139°48'1 1.7
2018-Feb-23 01:30N 35°36' E 139°47'2 4.0
2018-Feb-23 01:00N 35°34' E 139°48'4 7.6
2018-Feb-23 00:30N 35°30' E 139°47'2 0.1
2018-Feb-22 08:49N 35°31' E 139°45'1 3.9
2018-Feb-22 08:30N 35°30' E 139°46'611.9
2018-Feb-22 07:58N 35°30' E 139°54'511.9
2018-Feb-22 07:30N 35°30' E 140°01'1 1.3
2018-Feb-22 06:32N 35°30' E 140°02'0 0.0
2018-Feb-22 06:28N 35°30' E 140°02'0 0.0
2018-Feb-22 06:00N 35°30' E 140°02'2 3.1
2018-Feb-22 05:31N 35°30' E 140°00'0 0.0
2018-Feb-22 05:01N 35°30' E 140°00'0 0.0
2018-Feb-22 04:30N 35°30' E 140°00'3 7.0
2018-Feb-22 04:01N 35°33' E 139°57'712.1
2018-Feb-22 03:26N 35°37' E 139°50'1 2.5
2018-Feb-22 02:56N 35°38' E 139°50'0 0.0
2018-Feb-22 02:30N 35°38' E 139°50'2 4.6
2018-Feb-22 02:00N 35°36' E 139°50'510.8
2018-Feb-22 01:31N 35°30' E 139°48'4 7.3
2018-Feb-22 01:00N 35°30' E 139°44'0 0.2
2018-Feb-22 00:30N 35°30' E 139°44'0 0.0
2018-Feb-22 00:00N 35°30' E 139°44'1 2.6
2018-Feb-21 23:30N 35°31' E 139°45'0 0.0
2018-Feb-21 10:10N 35°31' E 139°45'0 2.0
2018-Feb-21 10:00N 35°31' E 139°45'610.9
2018-Feb-21 09:30N 35°30' E 139°52'611.9
2018-Feb-21 09:00N 35°30' E 139°59'2 4.2
2018-Feb-21 08:26N 35°30' E 140°02'0 0.0
2018-Feb-21 07:56N 35°30' E 140°02'0 0.0
2018-Feb-21 06:56N 35°30' E 140°02'1 3.5
2018-Feb-21 06:30N 35°30' E 140°00'0 0.1
2018-Feb-21 06:00N 35°30' E 140°00'711.8
2018-Feb-21 05:27N 35°34' E 139°54'511.4
2018-Feb-21 04:59N 35°37' E 139°48'0 0.5
2018-Feb-21 04:27N 35°36' E 139°48'0 0.0
2018-Feb-21 03:48N 35°36' E 139°48'0 0.0
2018-Feb-21 03:30N 35°36' E 139°48'1 1.1
2018-Feb-21 03:00N 35°37' E 139°47'0 0.5
2018-Feb-21 02:30N 35°37' E 139°48'0 0.0
2018-Feb-21 02:00N 35°37' E 139°48'0 0.0
2018-Feb-21 01:30N 35°37' E 139°48'0 0.0
2018-Feb-21 01:00N 35°37' E 139°48'2 3.1
2018-Feb-21 00:30N 35°35' E 139°47'5 9.6
2018-Feb-21 00:00N 35°31' E 139°49'3 6.4
2018-Feb-20 23:30N 35°31' E 139°45'0 0.0
2018-Feb-20 05:55N 35°31' E 139°45'3 6.4
2018-Feb-20 05:30N 35°30' E 139°48'611.8
2018-Feb-20 04:59N 35°30' E 139°55'611.7
2018-Feb-20 04:30N 35°31' E 140°02'0 0.7
2018-Feb-20 04:00N 35°31' E 140°03'0 0.0
2018-Feb-20 03:30N 35°31' E 140°03'0 0.0
2018-Feb-20 02:54N 35°31' E 140°03'1 1.8
2018-Feb-20 02:30N 35°31' E 140°02'0 0.1
2018-Feb-20 02:00N 35°31' E 140°02'711.9
2018-Feb-20 01:25N 35°34' E 139°54'510.9
2018-Feb-20 00:57N 35°38' E 139°50'0 0.0
2018-Feb-20 00:30N 35°38' E 139°50'0 0.1
2018-Feb-20 00:00N 35°38' E 139°49'2 4.5
2018-Feb-19 23:30N 35°36' E 139°51'611.1
2018-Feb-19 23:01N 35°31' E 139°48'3 0.3
2018-Feb-19 13:29N 35°31' E 139°45'3 5.8
2018-Feb-19 13:00N 35°30' E 139°48'5 9.9
2018-Feb-19 12:30N 35°35' E 139°47'1 2.0
2018-Feb-19 12:00N 35°36' E 139°48'0 0.0
2018-Feb-19 11:30N 35°36' E 139°48'0 0.0
2018-Feb-19 11:00N 35°36' E 139°48'0 0.7
2018-Feb-19 10:30N 35°36' E 139°47'2 4.3
2018-Feb-19 10:00N 35°34' E 139°48'0 0.1
2018-Feb-19 09:28N 35°34' E 139°48'0 0.0
2018-Feb-19 09:00N 35°34' E 139°48'1 1.5
2018-Feb-19 08:31N 35°33' E 139°49'4 7.7
2018-Feb-19 08:00N 35°30' E 139°46'1 2.0
2018-Feb-19 07:29N 35°31' E 139°45'3 6.4
2018-Feb-19 07:00N 35°29' E 139°42'611.3
2018-Feb-19 06:31N 35°23' E 139°41'3 5.2
2018-Feb-19 06:00N 35°24' E 139°38'0 0.0
2018-Feb-19 04:14N 35°24' E 139°38'0 0.9
2018-Feb-19 04:00N 35°24' E 139°38'2 4.9
2018-Feb-19 03:30N 35°24' E 139°41'612.5
2018-Feb-19 03:00N 35°28' E 139°46'611.1
2018-Feb-19 02:29N 35°34' E 139°49'4 8.0
2018-Feb-19 01:59N 35°37' E 139°47'0 0.0
2018-Feb-19 01:29N 35°37' E 139°47'0 0.0
2018-Feb-19 00:57N 35°37' E 139°47'0 0.0
2018-Feb-19 00:28N 35°37' E 139°47'0 0.0
2018-Feb-18 23:48N 35°37' E 139°47'2 5.3
2018-Feb-18 23:30N 35°36' E 139°47'5 9.9
2018-Feb-18 23:00N 35°31' E 139°49'3 6.7
2018-Feb-18 22:30N 35°31' E 139°45'0 0.0
2018-Feb-18 04:08N 35°31' E 139°45'0 0.2
2018-Feb-18 04:00N 35°31' E 139°45'4 8.9
2018-Feb-18 03:30N 35°30' E 139°50'611.9
2018-Feb-18 02:58N 35°31' E 139°58'4 1.1
2018-Feb-17 23:20N 35°31' E 140°03'1 3.9
2018-Feb-17 23:00N 35°31' E 140°01'612.5
2018-Feb-17 22:30N 35°30' E 139°53'612.6
2018-Feb-17 22:00N 35°30' E 139°46'1 0.1
2018-Feb-17 08:45N 35°31' E 139°45'0 0.2
2018-Feb-17 08:30N 35°31' E 139°45'4 7.8
2018-Feb-17 08:00N 35°32' E 139°49'611.9
2018-Feb-17 07:30N 35°38' E 139°50'0 0.0
2018-Feb-17 06:31N 35°38' E 139°50'0 0.0
2018-Feb-17 06:30N 35°38' E 139°50'2 3.7
2018-Feb-17 06:00N 35°36' E 139°51'0 0.5
2018-Feb-17 05:30N 35°36' E 139°51'0 0.1
2018-Feb-17 04:49N 35°36' E 139°51'0 0.0
2018-Feb-17 04:30N 35°36' E 139°51'0 0.0
2018-Feb-17 03:29N 35°36' E 139°51'0 0.0
2018-Feb-17 02:54N 35°36' E 139°51'0 0.1
2018-Feb-17 02:30N 35°36' E 139°51'0 0.1
2018-Feb-17 01:57N 35°36' E 139°51'0 0.0
2018-Feb-17 01:28N 35°36' E 139°51'0 0.0
2018-Feb-17 00:57N 35°36' E 139°51'0 0.1
2018-Feb-17 00:30N 35°36' E 139°51'0 0.0
2018-Feb-17 00:00N 35°36' E 139°51'0 0.0
2018-Feb-16 23:29N 35°36' E 139°51'0 0.0
2018-Feb-16 23:00N 35°36' E 139°51'1 1.5
2018-Feb-16 22:27N 35°36' E 139°50'2 3.8
2018-Feb-16 21:58N 35°36' E 139°48'0 0.0
2018-Feb-16 21:29N 35°36' E 139°48'0 0.5
2018-Feb-16 20:59N 35°36' E 139°48'4 7.5
2018-Feb-16 20:31N 35°33' E 139°50'4 8.8
2018-Feb-16 20:01N 35°30' E 139°45'1 0.0
2018-Feb-15 04:04N 35°31' E 139°45'0 0.1
2018-Feb-15 04:00N 35°31' E 139°45'3 6.7
2018-Feb-15 03:30N 35°31' E 139°49'611.4
2018-Feb-15 03:00N 35°37' E 139°50'1 1.7
2018-Feb-15 02:23N 35°38' E 139°50'0 0.0
2018-Feb-15 01:59N 35°38' E 139°50'2 3.9
2018-Feb-15 01:31N 35°36' E 139°50'5 9.0
2018-Feb-15 01:00N 35°32' E 139°49'4 7.6
2018-Feb-15 00:30N 35°31' E 139°45'0 0.0
2018-Feb-15 00:01N 35°31' E 139°45'0 0.0
2018-Feb-14 23:31N 35°31' E 139°45'0 0.0
2018-Feb-14 08:52N 35°31' E 139°45'1 4.1
2018-Feb-14 08:31N 35°30' E 139°46'611.2
2018-Feb-14 07:57N 35°30' E 139°54'511.3
2018-Feb-14 07:28N 35°30' E 140°01'1 1.3
2018-Feb-14 06:34N 35°30' E 140°02'0 0.0
2018-Feb-14 06:24N 35°30' E 140°02'0 0.1
2018-Feb-14 06:00N 35°30' E 140°02'711.9
2018-Feb-14 05:28N 35°34' E 139°55'612.4
2018-Feb-14 05:00N 35°37' E 139°49'1 2.7
2018-Feb-14 04:28N 35°36' E 139°48'0 0.0
2018-Feb-14 03:57N 35°36' E 139°48'0 0.0
2018-Feb-14 03:30N 35°36' E 139°48'0 0.3
2018-Feb-14 02:59N 35°36' E 139°48'2 3.4
2018-Feb-14 02:30N 35°35' E 139°48'3 6.5
2018-Feb-14 02:01N 35°32' E 139°49'510.3
2018-Feb-14 01:31N 35°30' E 139°43'0 0.1
2018-Feb-14 01:00N 35°30' E 139°43'0 0.0
2018-Feb-14 00:31N 35°30' E 139°43'0 0.0
2018-Feb-14 00:00N 35°30' E 139°43'2 3.6
2018-Feb-13 23:30N 35°31' E 139°45'0 0.0
2018-Feb-13 08:33N 35°31' E 139°45'0 0.1
2018-Feb-13 08:30N 35°31' E 139°45'4 7.7
2018-Feb-13 08:01N 35°32' E 139°49'611.5
2018-Feb-13 07:30N 35°37' E 139°46'1 1.6
2018-Feb-13 07:00N 35°38' E 139°46'0 0.0
2018-Feb-13 06:30N 35°38' E 139°46'0 0.0
2018-Feb-13 06:01N 35°38' E 139°46'0 0.0
2018-Feb-13 05:30N 35°38' E 139°46'3 6.2
2018-Feb-13 04:59N 35°38' E 139°50'0 0.0
2018-Feb-13 04:30N 35°38' E 139°50'0 0.0
2018-Feb-13 04:00N 35°38' E 139°50'6 9.3
2018-Feb-13 03:24N 35°34' E 139°55'511.7
2018-Feb-13 03:00N 35°32' E 139°60'  

Dump ship's entire track history